Time;durP1;ratioP1;P1;durP2;ratioP2;P2;SDS_P1;SDS_P2;PMS_P1;PMS_P2;Temp;Humidity;BMP_temperature;BMP_pressure;BME280_temperature;BME280_humidity;BME280_pressure;Samples;Min_cycle;Max_cycle;Signal;HPM_P1;HPM_P2
2023/09/12 00:00:19;;;;;;;11.17;7.93;;;21.60;99.90;;;;;;6072878;23;20357;-72
2023/09/12 00:02:45;;;;;;;11.07;8.90;;;21.50;99.90;;;;;;6048164;23;20129;-73
2023/09/12 00:05:10;;;;;;;14.00;8.93;;;21.40;99.90;;;;;;6072896;23;20525;-73
2023/09/12 00:07:37;;;;;;;13.10;8.60;;;21.40;99.90;;;;;;6071222;23;20148;-71
2023/09/12 00:10:03;;;;;;;11.50;8.27;;;21.30;99.90;;;;;;6074529;23;20499;-72
2023/09/12 00:12:28;;;;;;;8.57;7.70;;;21.20;99.90;;;;;;6070824;23;20422;-72
2023/09/12 00:14:54;;;;;;;10.90;7.33;;;21.10;99.90;;;;;;6071585;23;20627;-73
2023/09/12 00:17:20;;;;;;;11.47;8.10;;;21.10;99.90;;;;;;6071742;23;20217;-73
2023/09/12 00:19:45;;;;;;;7.90;7.07;;;21.00;99.90;;;;;;6047546;23;20145;-71
2023/09/12 00:22:11;;;;;;;8.83;7.20;;;20.90;99.90;;;;;;6071779;23;20147;-73
2023/09/12 00:24:37;;;;;;;8.70;6.50;;;20.90;99.90;;;;;;6046466;23;20174;-74
2023/09/12 00:27:04;;;;;;;8.40;7.57;;;20.90;99.90;;;;;;6071152;23;20216;-71
2023/09/12 00:29:30;;;;;;;7.77;7.07;;;20.80;99.90;;;;;;6072490;23;20417;-73
2023/09/12 00:31:55;;;;;;;11.10;8.07;;;20.70;99.90;;;;;;6073744;23;20460;-72
2023/09/12 00:34:21;;;;;;;11.13;8.10;;;20.60;99.90;;;;;;6047504;23;20562;-73
2023/09/12 00:36:47;;;;;;;11.87;9.53;;;20.60;99.90;;;;;;6072351;23;20197;-72
2023/09/12 00:39:12;;;;;;;9.50;8.53;;;20.50;99.90;;;;;;6071450;23;20148;-71
2023/09/12 00:41:38;;;;;;;12.13;9.03;;;20.40;99.90;;;;;;6071652;23;20142;-72
2023/09/12 00:44:03;;;;;;;12.17;8.40;;;20.40;99.90;;;;;;6071236;23;20169;-72
2023/09/12 00:46:30;;;;;;;9.37;8.37;;;20.30;99.90;;;;;;6070814;23;20153;-73
2023/09/12 00:48:57;;;;;;;11.00;8.00;;;20.20;99.90;;;;;;6046448;23;20150;-74
2023/09/12 00:51:25;;;;;;;14.03;9.60;;;20.20;99.90;;;;;;6046307;23;20397;-73
2023/09/12 00:53:51;;;;;;;11.90;8.00;;;20.20;99.90;;;;;;6045767;23;20429;-73
2023/09/12 00:56:17;;;;;;;9.60;8.17;;;20.20;99.90;;;;;;6070705;23;20362;-72
2023/09/12 00:58:43;;;;;;;11.93;8.67;;;20.10;99.90;;;;;;6071728;23;20169;-73
2023/09/12 01:01:08;;;;;;;10.10;9.00;;;20.10;99.90;;;;;;6071309;23;20389;-73
2023/09/12 01:03:35;;;;;;;13.67;8.50;;;20.10;99.90;;;;;;6071605;23;20216;-74
2023/09/12 01:06:02;;;;;;;9.87;8.70;;;20.00;99.90;;;;;;6070217;23;20216;-72
2023/09/12 01:08:28;;;;;;;8.63;7.73;;;20.00;99.90;;;;;;6071914;23;20366;-72
2023/09/12 01:10:56;;;;;;;13.03;9.80;;;20.00;99.90;;;;;;6070742;23;20440;-72
2023/09/12 01:13:23;;;;;;;10.30;8.80;;;20.00;99.90;;;;;;6070081;23;20841;-73
2023/09/12 01:15:49;;;;;;;9.87;8.43;;;20.00;99.90;;;;;;6046292;23;20362;-71
2023/09/12 01:18:14;;;;;;;10.20;8.57;;;19.90;99.90;;;;;;6045921;23;20396;-72
2023/09/12 01:20:44;;;;;;;10.40;8.53;;;19.90;99.90;;;;;;6045753;23;20177;-74
2023/09/12 01:23:30;;;;;;;8.57;7.70;;;19.90;99.90;;;;;;6072678;23;20168;-72
2023/09/12 01:26:24;;;;;;;9.40;8.40;;;19.80;99.90;;;;;;6070679;23;20366;-72
2023/09/12 01:28:51;;;;;;;13.37;10.20;;;19.80;99.90;;;;;;6071468;23;20503;-74
2023/09/12 01:31:17;;;;;;;14.47;9.70;;;19.80;99.90;;;;;;6046487;23;20381;-73
2023/09/12 01:33:43;;;;;;;10.73;9.47;;;19.80;99.90;;;;;;6071852;23;20397;-72
2023/09/12 01:36:10;;;;;;;12.20;11.00;;;19.80;99.90;;;;;;6069987;23;20858;-72
2023/09/12 01:38:35;;;;;;;10.50;9.23;;;19.90;99.90;;;;;;6047411;23;20153;-72
2023/09/12 01:41:01;;;;;;;12.07;8.40;;;19.90;99.90;;;;;;6070207;23;20515;-73
2023/09/12 01:43:28;;;;;;;9.20;8.20;;;19.90;99.90;;;;;;6070147;23;20657;-72
2023/09/12 01:45:56;;;;;;;10.40;9.30;;;19.90;99.90;;;;;;6071266;23;20833;-73
2023/09/12 01:48:26;;;;;;;11.53;9.63;;;20.00;99.90;;;;;;6070672;23;20664;-73
2023/09/12 01:50:52;;;;;;;16.97;11.00;;;20.00;99.90;;;;;;6070982;23;20687;-72
2023/09/12 01:53:18;;;;;;;15.60;11.77;;;20.00;99.90;;;;;;6070694;23;20952;-72
2023/09/12 01:55:45;;;;;;;14.03;10.40;;;20.00;99.90;;;;;;6070734;23;20394;-74
2023/09/12 01:58:12;;;;;;;12.73;11.40;;;20.00;99.90;;;;;;6045892;23;20365;-72
2023/09/12 02:00:39;;;;;;;14.53;12.73;;;19.90;99.90;;;;;;6046259;23;20386;-70
2023/09/12 02:03:05;;;;;;;12.83;11.40;;;19.90;99.90;;;;;;6045758;23;20424;-74
2023/09/12 02:05:31;;;;;;;14.10;12.70;;;19.90;99.90;;;;;;6071169;23;20428;-71
2023/09/12 02:07:56;;;;;;;14.30;11.63;;;19.90;99.90;;;;;;6045731;23;20140;-72
2023/09/12 02:10:22;;;;;;;10.40;9.40;;;19.90;99.90;;;;;;6070226;23;20420;-72
2023/09/12 02:12:47;;;;;;;15.27;12.53;;;19.90;99.90;;;;;;6071078;23;20326;-73
2023/09/12 02:15:13;;;;;;;13.60;12.33;;;19.80;99.90;;;;;;6071220;23;20149;-71
2023/09/12 02:17:39;;;;;;;14.83;12.70;;;19.80;99.90;;;;;;6045764;23;20133;-73
2023/09/12 02:20:07;;;;;;;12.30;11.00;;;19.80;99.90;;;;;;6070748;23;21059;-71
2023/09/12 02:22:33;;;;;;;14.47;12.97;;;19.80;99.90;;;;;;6070812;23;20130;-72
2023/09/12 02:24:58;;;;;;;13.10;11.47;;;19.80;99.90;;;;;;6070525;23;20452;-72
2023/09/12 02:27:24;;;;;;;12.30;11.00;;;19.80;99.90;;;;;;6069282;23;20193;-73
2023/09/12 02:29:49;;;;;;;12.33;11.13;;;19.70;99.90;;;;;;6045428;23;20447;-73
2023/09/12 02:32:15;;;;;;;17.03;12.17;;;19.70;99.90;;;;;;6072751;23;20138;-71
2023/09/12 02:34:41;;;;;;;12.00;10.73;;;19.60;99.90;;;;;;6047368;23;20161;-71
2023/09/12 02:37:07;;;;;;;18.10;14.20;;;19.60;99.90;;;;;;6046902;23;20219;-72
2023/09/12 02:39:32;;;;;;;15.93;13.40;;;19.60;99.90;;;;;;6073303;23;20365;-72
2023/09/12 02:41:58;;;;;;;14.63;13.10;;;19.60;99.90;;;;;;6046721;23;20553;-74
2023/09/12 02:44:24;;;;;;;15.93;12.83;;;19.60;99.90;;;;;;6047653;23;20244;-71
2023/09/12 02:46:50;;;;;;;20.50;13.10;;;19.60;99.90;;;;;;6073059;23;20200;-72
2023/09/12 02:49:16;;;;;;;14.50;13.00;;;19.60;99.90;;;;;;6071396;23;20179;-74
2023/09/12 02:51:42;;;;;;;14.87;13.23;;;19.60;99.90;;;;;;6047913;23;20413;-71
2023/09/12 02:54:07;;;;;;;14.40;13.00;;;19.60;99.90;;;;;;6071632;23;20176;-70
2023/09/12 02:56:33;;;;;;;14.20;12.60;;;19.70;99.90;;;;;;6072218;23;20165;-72
2023/09/12 02:58:59;;;;;;;15.80;12.80;;;19.70;99.90;;;;;;6047484;23;20149;-70
2023/09/12 03:01:28;;;;;;;14.87;12.67;;;19.70;99.90;;;;;;6071443;23;20189;-72
2023/09/12 03:03:54;;;;;;;14.43;11.67;;;19.60;99.90;;;;;;6047821;23;20174;-72
2023/09/12 03:06:20;;;;;;;15.87;11.83;;;19.60;99.90;;;;;;6072798;23;20616;-72
2023/09/12 03:08:47;;;;;;;13.10;11.27;;;19.70;99.90;;;;;;6072456;23;20432;-73
2023/09/12 03:11:13;;;;;;;13.33;11.67;;;19.70;99.90;;;;;;6072507;23;20169;-72
2023/09/12 03:13:40;;;;;;;11.97;10.17;;;19.70;99.90;;;;;;6047660;23;20499;-74
2023/09/12 03:16:10;;;;;;;13.03;11.03;;;19.70;99.90;;;;;;6047384;23;20137;-72
2023/09/12 03:18:35;;;;;;;14.93;12.17;;;19.70;99.90;;;;;;6047699;23;20397;-73
2023/09/12 03:21:01;;;;;;;11.97;10.73;;;19.70;99.90;;;;;;6048496;23;20370;-74
2023/09/12 03:23:27;;;;;;;16.67;12.03;;;19.80;99.90;;;;;;6047220;23;20486;-72
2023/09/12 03:25:52;;;;;;;13.23;11.87;;;19.80;99.90;;;;;;6047246;23;20157;-74
2023/09/12 03:28:18;;;;;;;12.50;11.27;;;19.80;99.90;;;;;;6046775;23;20219;-73
2023/09/12 03:30:44;;;;;;;12.67;11.37;;;19.80;99.90;;;;;;6023518;23;20247;-71
2023/09/12 03:33:09;;;;;;;14.97;12.60;;;19.80;99.90;;;;;;6049623;23;20165;-71
2023/09/12 03:35:36;;;;;;;10.70;9.20;;;19.80;99.90;;;;;;6046867;23;20164;-72
2023/09/12 03:38:02;;;;;;;13.20;11.80;;;19.80;99.90;;;;;;6046272;23;20189;-73
2023/09/12 03:40:31;;;;;;;16.17;12.63;;;19.80;99.90;;;;;;6046254;23;20373;-74
2023/09/12 03:42:57;;;;;;;14.27;11.80;;;19.80;99.90;;;;;;6046471;23;20412;-72
2023/09/12 03:45:24;;;;;;;15.53;13.00;;;19.80;99.90;;;;;;6047451;23;20798;-71
2023/09/12 03:47:50;;;;;;;14.57;13.07;;;19.80;99.90;;;;;;6047064;23;20173;-72
2023/09/12 03:50:16;;;;;;;12.23;10.73;;;19.70;99.90;;;;;;6072431;23;20405;-74
2023/09/12 03:52:42;;;;;;;11.90;10.63;;;19.70;99.90;;;;;;6071391;23;20365;-72
2023/09/12 03:55:08;;;;;;;13.20;11.90;;;19.80;99.90;;;;;;6051103;23;20511;-72
2023/09/12 03:57:34;;;;;;;13.40;12.00;;;19.70;99.90;;;;;;6051762;23;20224;-72
2023/09/12 03:59:59;;;;;;;10.37;9.30;;;19.80;99.90;;;;;;6077128;23;20362;-71
2023/09/12 04:02:25;;;;;;;13.03;11.23;;;19.80;99.90;;;;;;6071629;23;20419;-71
2023/09/12 04:04:51;;;;;;;11.90;10.53;;;19.80;99.90;;;;;;6072055;23;20225;-71
2023/09/12 04:07:18;;;;;;;10.67;9.17;;;19.80;99.90;;;;;;6047826;23;20157;-71
2023/09/12 04:09:43;;;;;;;10.13;8.80;;;19.80;99.90;;;;;;6072318;23;20409;-72
2023/09/12 04:12:09;;;;;;;10.13;9.00;;;19.80;99.90;;;;;;6046301;23;20475;-71
2023/09/12 04:14:35;;;;;;;8.53;7.73;;;19.80;99.90;;;;;;6071423;23;20174;-70
2023/09/12 04:17:01;;;;;;;10.70;9.67;;;19.90;99.90;;;;;;6070063;23;20149;-72
2023/09/12 04:19:27;;;;;;;12.70;9.10;;;19.80;99.90;;;;;;6071472;23;20392;-73
2023/09/12 04:21:53;;;;;;;8.20;7.40;;;19.90;99.90;;;;;;6072088;23;20628;-71
2023/09/12 04:24:18;;;;;;;8.80;7.40;;;19.90;99.90;;;;;;6072435;23;20584;-73
2023/09/12 04:26:44;;;;;;;12.10;10.80;;;19.90;99.90;;;;;;6070376;23;20177;-72
2023/09/12 04:29:10;;;;;;;11.10;10.00;;;19.90;99.90;;;;;;6071752;23;20404;-71
2023/09/12 04:31:36;;;;;;;11.20;10.00;;;19.90;99.90;;;;;;6023329;23;20141;-73
2023/09/12 04:34:02;;;;;;;10.20;9.10;;;19.90;99.90;;;;;;6045999;23;20687;-72
2023/09/12 04:36:28;;;;;;;12.70;9.03;;;20.00;99.90;;;;;;6071486;23;20192;-72
2023/09/12 04:38:53;;;;;;;10.43;9.03;;;20.00;99.90;;;;;;6048220;23;20153;-71
2023/09/12 04:41:19;;;;;;;12.43;9.47;;;20.00;99.90;;;;;;6046686;23;20145;-72
2023/09/12 04:43:45;;;;;;;10.27;9.27;;;20.10;99.90;;;;;;6073810;23;20553;-71
2023/09/12 04:46:11;;;;;;;9.90;8.90;;;20.20;99.90;;;;;;6071250;23;20145;-73
2023/09/12 04:48:38;;;;;;;9.10;8.20;;;20.20;99.90;;;;;;6046489;23;20150;-72
2023/09/12 04:51:03;;;;;;;10.33;8.80;;;20.20;99.90;;;;;;6072301;23;20401;-74
2023/09/12 04:53:34;;;;;;;8.50;7.70;;;20.20;99.90;;;;;;6071654;23;20412;-74
2023/09/12 04:56:01;;;;;;;10.10;8.97;;;20.20;99.90;;;;;;6070674;23;20145;-75
2023/09/12 04:58:28;;;;;;;8.37;7.57;;;20.10;99.90;;;;;;6073217;23;20385;-73
2023/09/12 05:00:55;;;;;;;9.33;7.50;;;20.10;99.90;;;;;;6076731;23;20373;-75
2023/09/12 05:03:21;;;;;;;7.77;6.43;;;20.00;99.90;;;;;;6056992;23;20267;-73
2023/09/12 05:05:50;;;;;;;6.23;5.63;;;19.90;99.90;;;;;;6084054;23;20381;-72
2023/09/12 05:08:17;;;;;;;6.80;5.60;;;19.90;99.90;;;;;;6036002;23;20161;-74
2023/09/12 05:10:45;;;;;;;5.83;5.33;;;19.90;99.90;;;;;;6061382;23;20409;-75
2023/09/12 05:13:11;;;;;;;6.20;5.60;;;20.00;99.90;;;;;;6063055;23;20408;-76
2023/09/12 05:15:39;;;;;;;7.40;6.63;;;20.00;99.90;;;;;;6060543;23;20361;-74
2023/09/12 05:18:07;;;;;;;6.33;5.70;;;20.00;99.90;;;;;;6064816;23;20373;-74
2023/09/12 05:20:36;;;;;;;5.50;5.00;;;20.00;99.90;;;;;;6086070;23;20468;-75
2023/09/12 05:23:03;;;;;;;12.23;7.47;;;20.00;99.90;;;;;;6062319;23;20400;-73
2023/09/12 05:25:30;;;;;;;7.60;6.80;;;20.10;99.90;;;;;;6063039;23;20389;-77
2023/09/12 05:27:57;;;;;;;11.47;7.33;;;20.10;99.90;;;;;;6087744;23;20485;-74
2023/09/12 05:30:23;;;;;;;9.43;7.20;;;20.10;99.90;;;;;;6061870;23;20426;-73
2023/09/12 05:32:49;;;;;;;12.13;8.80;;;20.20;99.90;;;;;;6016186;23;20368;-74
2023/09/12 05:35:15;;;;;;;8.33;7.27;;;20.20;99.90;;;;;;6062102;23;20404;-74
2023/09/12 05:37:43;;;;;;;11.33;8.93;;;20.30;99.90;;;;;;6062506;23;20192;-77
2023/09/12 05:40:10;;;;;;;8.43;7.60;;;20.40;99.90;;;;;;6016979;23;20385;-74
2023/09/12 05:42:36;;;;;;;10.63;7.63;;;20.40;99.90;;;;;;6061807;23;20441;-75
2023/09/12 05:45:02;;;;;;;10.70;8.23;;;20.50;99.90;;;;;;6040621;23;20439;-76
2023/09/12 05:47:28;;;;;;;9.03;7.33;;;20.60;99.90;;;;;;6065814;23;20393;-77
2023/09/12 05:49:54;;;;;;;7.47;6.53;;;20.60;99.90;;;;;;6087411;23;20409;-73
2023/09/12 05:52:20;;;;;;;9.10;8.20;;;20.70;99.90;;;;;;6061479;23;20193;-73
2023/09/12 05:54:45;;;;;;;14.63;8.80;;;20.80;99.90;;;;;;6061688;23;20416;-71
2023/09/12 05:57:11;;;;;;;8.97;7.70;;;20.80;99.90;;;;;;6061811;23;20159;-74
2023/09/12 05:59:38;;;;;;;8.67;7.87;;;20.90;99.90;;;;;;6063532;23;20206;-76
2023/09/12 06:02:05;;;;;;;8.13;7.00;;;21.00;99.90;;;;;;6087969;23;20145;-75
2023/09/12 06:04:33;;;;;;;7.60;6.17;;;21.00;99.90;;;;;;6064236;23;20404;-76
2023/09/12 06:06:59;;;;;;;7.60;5.53;;;21.00;99.90;;;;;;6065360;23;20429;-75
2023/09/12 06:09:27;;;;;;;7.70;6.90;;;21.20;99.90;;;;;;6063505;23;20223;-75
2023/09/12 06:11:54;;;;;;;7.57;6.73;;;21.30;99.90;;;;;;6062496;23;20445;-77
2023/09/12 06:14:20;;;;;;;13.13;7.63;;;21.40;99.90;;;;;;6038368;23;20469;-76
2023/09/12 06:16:46;;;;;;;8.40;7.00;;;21.50;99.90;;;;;;6040473;23;20382;-73
2023/09/12 06:19:14;;;;;;;8.10;7.30;;;21.60;99.90;;;;;;6061736;23;20380;-76
2023/09/12 06:21:42;;;;;;;9.23;7.20;;;21.70;99.90;;;;;;6014636;23;20382;-75
2023/09/12 06:24:20;;;;;;;8.97;6.80;;;21.80;99.90;;;;;;6063932;23;20404;-75
2023/09/12 06:26:46;;;;;;;9.37;6.37;;;21.90;99.90;;;;;;6062762;23;20381;-75
2023/09/12 06:29:16;;;;;;;8.23;6.97;;;22.10;99.90;;;;;;6062832;23;20432;-76
2023/09/12 06:31:42;;;;;;;11.17;8.60;;;22.20;99.90;;;;;;6062957;23;20213;-75
2023/09/12 06:34:08;;;;;;;11.20;9.40;;;22.30;99.90;;;;;;6061142;23;20394;-74
2023/09/12 06:36:34;;;;;;;12.77;9.87;;;22.40;99.90;;;;;;6061480;23;20535;-75
2023/09/12 06:39:05;;;;;;;16.23;12.27;;;22.40;99.90;;;;;;6042835;23;20393;-78
2023/09/12 06:41:35;;;;;;;18.07;14.53;;;22.60;99.90;;;;;;6062206;23;20438;-77
2023/09/12 06:44:24;;;;;;;16.97;14.20;;;22.70;99.90;;;;;;6038195;23;20390;-78
2023/09/12 06:46:50;;;;;;;18.57;14.70;;;22.80;99.90;;;;;;5994262;23;20443;-76
2023/09/12 06:49:35;;;;;;;15.20;13.00;;;22.90;99.90;;;;;;6016193;23;20434;-79
2023/09/12 06:52:09;;;;;;;18.90;15.73;;;22.80;99.90;;;;;;6039510;23;20424;-77
2023/09/12 06:54:38;;;;;;;19.07;15.00;;;22.70;99.90;;;;;;6039079;23;20394;-81
2023/09/12 06:57:09;;;;;;;18.63;14.53;;;22.60;99.90;;;;;;6017660;23;20379;-78
2023/09/12 07:24:15;;;;;;;13.73;11.60;;;23.00;99.90;;;;;;6089933;23;20483;-75
2023/09/12 07:41:09;;;;;;;12.07;10.77;;;23.20;99.90;;;;;;6060874;23;20872;-75
2023/09/12 07:43:36;;;;;;;13.00;10.77;;;23.20;99.90;;;;;;6093422;23;20409;-76
2023/09/12 07:46:05;;;;;;;11.77;9.00;;;23.20;99.90;;;;;;6069523;23;20384;-79
2023/09/12 07:48:32;;;;;;;11.03;9.20;;;23.20;99.90;;;;;;6093740;23;20133;-76
2023/09/12 07:50:59;;;;;;;12.07;8.70;;;23.20;99.90;;;;;;6073423;23;20425;-75
2023/09/12 07:53:30;;;;;;;9.33;7.60;;;23.20;99.90;;;;;;6097725;23;20407;-78
2023/09/12 07:57:00;;;;;;;11.20;8.07;;;23.30;99.90;;;;;;6081598;23;20137;-76
2023/09/12 08:11:28;;;;;;;9.80;7.43;;;23.60;99.90;;;;;;6097435;23;20535;-78
2023/09/12 08:14:22;;;;;;;8.00;6.57;;;23.60;99.90;;;;;;6094742;23;20412;-76
2023/09/12 08:25:43;;;;;;;7.57;6.77;;;23.90;99.90;;;;;;6100114;23;20478;-76
2023/09/12 08:28:48;;;;;;;9.00;7.30;;;23.90;99.90;;;;;;6096561;23;20395;-76
2023/09/12 08:46:18;;;;;;;9.00;8.00;;;24.20;97.60;;;;;;6121236;23;20436;-78
2023/09/12 08:51:57;;;;;;;13.00;7.87;;;24.10;96.90;;;;;;6063921;23;20455;-77
2023/09/12 08:54:33;;;;;;;8.90;8.00;;;24.10;96.90;;;;;;6055329;23;20396;-78
2023/09/12 09:43:31;;;;;;;8.00;7.20;;;26.30;86.90;;;;;;6024512;23;20457;-75
2023/09/12 09:46:23;;;;;;;7.75;6.95;;;26.30;85.40;;;;;;6050915;23;20432;-73
2023/09/12 09:48:50;;;;;;;8.03;7.33;;;26.30;85.30;;;;;;6064282;23;20188;-72
2023/09/12 09:51:16;;;;;;;9.30;7.50;;;26.30;83.30;;;;;;6114135;23;20436;-75
2023/09/12 09:53:43;;;;;;;8.17;6.20;;;26.30;83.00;;;;;;6108789;23;20415;-73
2023/09/12 09:56:13;;;;;;;10.00;7.60;;;26.10;83.80;;;;;;6069094;23;20377;-75
2023/09/12 09:58:47;;;;;;;7.47;6.77;;;26.00;83.90;;;;;;6088860;23;20441;-70
2023/09/12 10:01:18;;;;;;;8.97;6.90;;;26.00;85.70;;;;;;6116016;23;20412;-70
2023/09/12 10:03:45;;;;;;;7.87;6.23;;;25.80;87.50;;;;;;6092614;23;20397;-71
2023/09/12 10:06:12;;;;;;;6.00;5.50;;;25.70;90.00;;;;;;6092690;23;20373;-69
2023/09/12 10:08:42;;;;;;;6.17;5.50;;;25.60;90.70;;;;;;6093017;23;20377;-69
2023/09/12 10:11:08;;;;;;;7.03;5.50;;;25.50;91.20;;;;;;6085045;23;20396;-69
2023/09/12 10:13:37;;;;;;;6.57;5.83;;;25.40;91.20;;;;;;6114010;23;20798;-72
2023/09/12 10:16:04;;;;;;;8.33;6.33;;;25.20;91.60;;;;;;6114054;23;20410;-73
2023/09/12 10:18:42;;;;;;;9.10;7.00;;;25.10;92.00;;;;;;6118109;23;20369;-71
2023/09/12 10:21:15;;;;;;;7.53;6.23;;;25.00;92.50;;;;;;6115279;23;20809;-72
2023/09/12 10:23:47;;;;;;;7.43;6.57;;;24.80;93.40;;;;;;6113510;23;20632;-72
2023/09/12 10:26:14;;;;;;;6.23;5.50;;;24.90;93.80;;;;;;6089130;23;20479;-71
2023/09/12 10:28:43;;;;;;;7.80;5.43;;;24.90;93.40;;;;;;6091609;23;20388;-73
2023/09/12 10:31:12;;;;;;;7.33;6.17;;;25.00;93.10;;;;;;6114554;23;20427;-76
2023/09/12 10:33:38;;;;;;;8.13;5.47;;;25.10;92.70;;;;;;6099096;23;20457;-76
2023/09/12 10:36:10;;;;;;;6.70;5.50;;;25.20;92.30;;;;;;6062542;23;20456;-77
2023/09/12 10:38:45;;;;;;;6.23;5.63;;;25.30;92.00;;;;;;6092681;23;20435;-75
2023/09/12 10:41:16;;;;;;;6.27;5.63;;;25.40;91.10;;;;;;6071710;23;20384;-77
2023/09/12 10:43:55;;;;;;;7.57;6.77;;;25.30;91.30;;;;;;6097409;23;20408;-77
2023/09/12 10:46:26;;;;;;;6.43;5.70;;;25.50;91.20;;;;;;6092336;23;20379;-79
2023/09/12 10:49:15;;;;;;;7.40;6.40;;;25.60;90.00;;;;;;6069792;23;20415;-79
2023/09/12 10:51:50;;;;;;;9.63;6.87;;;25.80;89.10;;;;;;6080619;23;20404;-78
2023/09/12 10:57:13;;;;;;;8.80;6.63;;;26.00;86.50;;;;;;6116191;23;20495;-77
2023/09/12 11:00:37;;;;;;;7.90;7.10;;;26.00;85.10;;;;;;6053039;23;20427;-77
2023/09/12 11:03:37;;;;;;;7.87;7.07;;;26.20;83.50;;;;;;6069236;23;20412;-79
2023/09/12 11:06:20;;;;;;;10.10;8.23;;;26.30;82.90;;;;;;6100853;23;20371;-78
2023/09/12 11:09:24;;;;;;;10.77;9.00;;;26.40;80.90;;;;;;6075820;23;20371;-78
2023/09/12 11:12:02;;;;;;;8.23;7.40;;;26.20;81.20;;;;;;6122779;23;20384;-78
2023/09/12 11:14:28;;;;;;;7.00;6.40;;;26.10;82.00;;;;;;6061109;23;20448;-78
2023/09/12 11:17:10;;;;;;;7.47;6.70;;;26.10;82.40;;;;;;6047672;23;20373;-77
2023/09/12 11:19:51;;;;;;;7.47;6.77;;;26.00;83.30;;;;;;6094817;23;20172;-79
2023/09/12 12:10:00;;;;;;;6.90;6.20;;;26.10;81.40;;;;;;6092241;23;20441;-76
2023/09/12 12:12:45;;;;;;;;;;;;;;;;;;;;;
2023/09/12 12:33:56;;;;;;;9.63;7.73;;;26.70;76.40;;;;;;6100088;23;20446;-76
2023/09/12 12:39:23;;;;;;;7.63;6.60;;;26.50;77.50;;;;;;6079000;23;20475;-79
2023/09/12 13:27:35;;;;;;;5.57;5.17;;;26.50;75.20;;;;;;6058511;23;20448;-77
2023/09/12 13:37:07;;;;;;;9.03;5.80;;;26.60;73.60;;;;;;6105491;23;20427;-79
2023/09/12 13:40:23;;;;;;;6.87;6.27;;;26.70;73.20;;;;;;6099179;23;20397;-79
2023/09/12 13:46:27;;;;;;;6.17;5.67;;;26.70;72.60;;;;;;6084181;23;20440;-79
2023/09/12 13:51:50;;;;;;;6.80;6.13;;;26.60;72.30;;;;;;6007671;24;20367;-79
2023/09/12 13:54:17;;;;;;;7.77;5.50;;;26.60;72.30;;;;;;6005368;23;20499;-76
2023/09/12 13:57:08;;;;;;;5.57;5.07;;;26.40;72.40;;;;;;6029443;23;20403;-78
2023/09/12 13:59:48;;;;;;;5.70;5.20;;;26.40;72.60;;;;;;6004462;23;20242;-76
2023/09/12 14:02:14;;;;;;;8.83;5.40;;;26.50;71.60;;;;;;6003364;23;20478;-75
2023/09/12 14:04:45;;;;;;;5.90;5.37;;;26.50;71.90;;;;;;6037906;23;20417;-76
2023/09/12 14:07:54;;;;;;;6.03;5.43;;;26.50;71.40;;;;;;6063801;23;20469;-79
2023/09/12 14:11:04;;;;;;;7.70;5.37;;;26.60;69.50;;;;;;6065188;23;20414;-79
2023/09/12 14:16:20;;;;;;;5.90;5.40;;;26.60;68.70;;;;;;6073883;23;20432;-77
2023/09/12 14:18:50;;;;;;;6.77;5.07;;;26.60;68.20;;;;;;6090564;23;20393;-78
2023/09/12 14:21:37;;;;;;;5.83;5.33;;;26.60;68.50;;;;;;6011614;23;20390;-78
2023/09/12 14:24:25;;;;;;;6.17;5.57;;;26.60;68.80;;;;;;6048039;23;20462;-75
2023/09/12 14:26:51;;;;;;;5.67;5.17;;;26.60;68.10;;;;;;6068097;23;20452;-79
2023/09/12 14:29:24;;;;;;;7.23;5.30;;;26.70;68.40;;;;;;6051489;23;20448;-77
2023/09/12 14:32:02;;;;;;;7.10;6.20;;;26.80;68.40;;;;;;6064514;23;20413;-77
2023/09/12 14:34:28;;;;;;;6.17;5.57;;;26.80;68.30;;;;;;6036815;23;20438;-73
2023/09/12 14:36:55;;;;;;;7.17;5.33;;;26.80;68.10;;;;;;6059097;23;20464;-73
2023/09/12 14:39:25;;;;;;;5.43;4.90;;;26.80;68.20;;;;;;6032413;23;20450;-73
2023/09/12 14:41:52;;;;;;;5.30;4.17;;;26.60;68.10;;;;;;6036836;23;20385;-73
2023/09/12 14:44:19;;;;;;;5.70;4.73;;;26.60;68.50;;;;;;6061117;23;20382;-74
2023/09/12 14:46:49;;;;;;;4.27;3.87;;;26.60;68.90;;;;;;6036279;23;20174;-75
2023/09/12 14:49:16;;;;;;;5.23;4.33;;;26.80;68.50;;;;;;6060957;23;20459;-74
2023/09/12 14:51:48;;;;;;;4.37;3.93;;;26.80;68.60;;;;;;6040684;23;20401;-77
2023/09/12 14:57:37;;;;;;;5.70;4.40;;;27.10;67.50;;;;;;6065340;23;20445;-79
2023/09/12 15:00:06;;;;;;;6.00;4.63;;;27.10;67.10;;;;;;6069095;23;20491;-79
2023/09/12 15:02:48;;;;;;;6.60;6.00;;;27.10;67.10;;;;;;6060680;23;20417;-79
2023/09/12 15:05:17;;;;;;;4.90;4.50;;;27.10;67.20;;;;;;6043920;23;20382;-78
2023/09/12 15:07:43;;;;;;;7.40;6.70;;;27.00;67.00;;;;;;6018062;23;20417;-78
2023/09/12 15:10:09;;;;;;;5.43;4.87;;;26.90;67.20;;;;;;6040722;23;20473;-76
2023/09/12 15:12:35;;;;;;;5.63;4.27;;;26.90;66.70;;;;;;6018282;23;20398;-77
2023/09/12 15:15:03;;;;;;;4.90;4.37;;;26.90;66.60;;;;;;6015125;23;20417;-76
2023/09/12 15:17:29;;;;;;;4.90;4.10;;;26.90;66.00;;;;;;6040799;23;20150;-77
2023/09/12 15:19:58;;;;;;;5.20;4.70;;;26.90;65.50;;;;;;6041831;23;20374;-78
2023/09/12 15:22:53;;;;;;;6.27;5.73;;;26.90;65.30;;;;;;6040699;23;20366;-77
2023/09/12 15:25:22;;;;;;;5.73;4.90;;;26.80;65.90;;;;;;6021127;23;20513;-78
2023/09/12 15:28:05;;;;;;;5.17;4.60;;;26.80;66.10;;;;;;6088994;23;20398;-77
2023/09/12 15:30:31;;;;;;;4.83;4.43;;;26.70;66.20;;;;;;6069763;23;20412;-78
2023/09/12 15:33:01;;;;;;;6.37;5.50;;;26.60;66.50;;;;;;6069583;23;20443;-78
2023/09/12 15:36:13;;;;;;;5.23;4.73;;;26.60;66.90;;;;;;6004878;23;20446;31
2023/09/12 15:38:40;;;;;;;5.23;4.73;;;26.50;67.50;;;;;;6041566;23;20380;-78
2023/09/12 15:41:29;;;;;;;5.67;4.80;;;26.40;68.00;;;;;;6064547;23;20383;-79
2023/09/12 15:44:28;;;;;;;5.53;4.90;;;26.30;68.40;;;;;;5950770;24;20429;-78
2023/09/12 15:55:48;;;;;;;5.20;4.70;;;25.90;69.80;;;;;;6069508;23;20456;-79
2023/09/12 16:27:00;;;;;;;6.20;5.40;;;25.70;68.90;;;;;;6035860;23;20602;-79
2023/09/12 16:29:33;;;;;;;8.13;5.63;;;25.60;69.30;;;;;;6028964;23;20397;-79
2023/09/12 16:46:13;;;;;;;6.40;5.80;;;25.30;72.60;;;;;;6051372;23;20510;-78
2023/09/12 16:49:33;;;;;;;7.70;6.23;;;25.10;72.90;;;;;;6091859;23;20454;-76
2023/09/12 17:40:22;;;;;;;16.40;14.90;;;24.00;86.40;;;;;;6072430;23;20429;-78
2023/09/12 17:42:59;;;;;;;14.80;13.40;;;24.00;88.20;;;;;;5996653;23;20410;-78
2023/09/12 17:45:27;;;;;;;16.97;15.20;;;23.90;89.50;;;;;;6080624;23;20491;-77
2023/09/12 17:47:54;;;;;;;16.20;14.30;;;23.90;90.50;;;;;;6099008;23;20373;-79
2023/09/12 17:56:29;;;;;;;16.77;15.17;;;23.40;96.00;;;;;;6097848;23;20419;-78
2023/09/12 17:59:13;;;;;;;17.00;15.40;;;23.20;99.90;;;;;;6099961;23;20377;-79
2023/09/12 18:01:49;;;;;;;15.77;14.33;;;23.00;99.90;;;;;;6076647;23;20384;-79
2023/09/12 18:04:56;;;;;;;15.63;14.23;;;22.80;99.90;;;;;;6058072;23;20388;-78
2023/09/12 18:07:32;;;;;;;23.93;16.40;;;22.70;99.90;;;;;;6028389;23;20468;-78
2023/09/12 18:13:18;;;;;;;14.97;13.57;;;22.40;99.90;;;;;;6117611;23;20440;-78
2023/09/12 18:15:49;;;;;;;15.40;13.90;;;22.10;99.90;;;;;;5981163;23;20456;-77
2023/09/12 18:18:22;;;;;;;14.90;13.53;;;21.90;99.90;;;;;;6097269;23;20392;-77
2023/09/12 18:20:49;;;;;;;16.63;14.83;;;21.60;99.90;;;;;;6073299;23;20396;-77
2023/09/12 18:23:22;;;;;;;17.50;15.70;;;21.30;99.90;;;;;;6046300;23;20838;-76
2023/09/12 18:25:55;;;;;;;16.97;15.10;;;21.10;99.90;;;;;;6098030;23;20397;-79
2023/09/12 18:28:56;;;;;;;16.30;14.80;;;21.00;99.90;;;;;;6098053;23;20392;-78
2023/09/12 18:31:44;;;;;;;20.20;18.20;;;20.70;99.90;;;;;;6098014;23;20411;-76
2023/09/12 18:34:32;;;;;;;21.03;17.20;;;20.60;99.90;;;;;;6071595;23;20675;-77
2023/09/12 18:36:58;;;;;;;22.00;19.80;;;20.50;99.90;;;;;;6096372;23;20393;-77
2023/09/12 18:39:25;;;;;;;24.03;21.57;;;20.40;99.90;;;;;;6098185;23;20356;-77
2023/09/12 18:41:54;;;;;;;25.03;22.53;;;20.40;99.90;;;;;;6073998;23;20380;-78
2023/09/12 18:44:23;;;;;;;29.13;25.97;;;20.30;99.90;;;;;;6062343;23;20543;-78
2023/09/12 18:46:56;;;;;;;31.83;27.80;;;20.30;99.90;;;;;;6039724;23;20443;-78
2023/09/12 18:49:26;;;;;;;29.70;24.80;;;20.20;99.90;;;;;;6040028;23;20419;-76
2023/09/12 18:51:55;;;;;;;31.33;27.40;;;20.20;99.90;;;;;;6041330;23;20398;-78
2023/09/12 18:54:29;;;;;;;31.73;28.43;;;20.20;99.90;;;;;;6054436;23;20482;-79
2023/09/12 18:59:46;;;;;;;27.93;24.30;;;20.20;99.90;;;;;;6064619;23;20877;-77
2023/09/12 19:02:14;;;;;;;23.30;20.93;;;20.20;99.90;;;;;;6040857;23;20561;-79
2023/09/12 19:05:06;;;;;;;24.53;19.23;;;20.30;99.90;;;;;;6066163;23;20741;-79
2023/09/12 19:07:35;;;;;;;20.60;18.50;;;20.30;99.90;;;;;;5995148;23;20393;-78
2023/09/12 19:10:10;;;;;;;19.23;17.20;;;20.20;99.90;;;;;;6064946;23;20458;-78
2023/09/12 19:15:21;;;;;;;16.93;15.17;;;20.10;99.90;;;;;;6107532;23;20548;-79